sensor_id;sensor_type;location;lat;lon;timestamp;P1;durP1;ratioP1;P2;durP2;ratioP2
52494;SDS011;38405;53.212;5.660;2023-12-28T00:00:04;25.13;;;4.93;;
52494;SDS011;38405;53.212;5.660;2023-12-28T00:02:31;26.58;;;5.35;;
52494;SDS011;38405;53.212;5.660;2023-12-28T00:04:56;24.60;;;5.22;;
52494;SDS011;38405;53.212;5.660;2023-12-28T00:07:22;25.73;;;5.43;;
52494;SDS011;38405;53.212;5.660;2023-12-28T00:09:47;31.98;;;4.90;;
52494;SDS011;38405;53.212;5.660;2023-12-28T00:12:13;36.38;;;5.20;;
52494;SDS011;38405;53.212;5.660;2023-12-28T00:14:39;26.67;;;4.85;;
52494;SDS011;38405;53.212;5.660;2023-12-28T00:17:04;28.75;;;5.30;;
52494;SDS011;38405;53.212;5.660;2023-12-28T00:19:30;23.13;;;4.70;;
52494;SDS011;38405;53.212;5.660;2023-12-28T00:21:56;27.02;;;5.10;;
52494;SDS011;38405;53.212;5.660;2023-12-28T00:24:21;27.25;;;4.47;;
52494;SDS011;38405;53.212;5.660;2023-12-28T00:26:47;30.10;;;4.47;;
52494;SDS011;38405;53.212;5.660;2023-12-28T00:29:12;36.90;;;5.15;;
52494;SDS011;38405;53.212;5.660;2023-12-28T00:31:38;27.70;;;4.80;;
52494;SDS011;38405;53.212;5.660;2023-12-28T00:34:04;30.70;;;5.22;;
52494;SDS011;38405;53.212;5.660;2023-12-28T00:36:29;29.17;;;5.60;;
52494;SDS011;38405;53.212;5.660;2023-12-28T00:38:55;36.72;;;5.65;;
52494;SDS011;38405;53.212;5.660;2023-12-28T00:41:22;34.72;;;5.22;;
52494;SDS011;38405;53.212;5.660;2023-12-28T00:43:47;34.85;;;5.90;;
52494;SDS011;38405;53.212;5.660;2023-12-28T00:46:13;39.42;;;5.32;;
52494;SDS011;38405;53.212;5.660;2023-12-28T00:48:38;28.90;;;5.30;;
52494;SDS011;38405;53.212;5.660;2023-12-28T00:51:04;35.70;;;5.45;;
52494;SDS011;38405;53.212;5.660;2023-12-28T00:53:30;33.28;;;5.53;;
52494;SDS011;38405;53.212;5.660;2023-12-28T00:55:56;25.13;;;4.30;;
52494;SDS011;38405;53.212;5.660;2023-12-28T00:58:21;31.83;;;5.05;;
52494;SDS011;38405;53.212;5.660;2023-12-28T01:00:47;26.58;;;4.35;;
52494;SDS011;38405;53.212;5.660;2023-12-28T01:03:13;28.00;;;4.78;;
52494;SDS011;38405;53.212;5.660;2023-12-28T01:05:38;28.95;;;4.43;;
52494;SDS011;38405;53.212;5.660;2023-12-28T01:08:04;36.55;;;5.60;;
52494;SDS011;38405;53.212;5.660;2023-12-28T01:10:30;38.05;;;4.82;;
52494;SDS011;38405;53.212;5.660;2023-12-28T01:12:56;46.00;;;5.38;;
52494;SDS011;38405;53.212;5.660;2023-12-28T01:15:21;35.78;;;4.75;;
52494;SDS011;38405;53.212;5.660;2023-12-28T01:17:47;35.38;;;5.80;;
52494;SDS011;38405;53.212;5.660;2023-12-28T01:20:12;32.10;;;5.13;;
52494;SDS011;38405;53.212;5.660;2023-12-28T01:22:38;35.90;;;5.30;;
52494;SDS011;38405;53.212;5.660;2023-12-28T01:25:04;28.95;;;4.55;;
52494;SDS011;38405;53.212;5.660;2023-12-28T01:27:30;30.13;;;4.57;;
52494;SDS011;38405;53.212;5.660;2023-12-28T01:29:56;40.38;;;5.28;;
52494;SDS011;38405;53.212;5.660;2023-12-28T01:32:21;41.42;;;5.47;;
52494;SDS011;38405;53.212;5.660;2023-12-28T01:34:47;30.50;;;4.93;;
52494;SDS011;38405;53.212;5.660;2023-12-28T01:37:12;41.10;;;5.18;;
52494;SDS011;38405;53.212;5.660;2023-12-28T01:39:38;44.58;;;6.30;;
52494;SDS011;38405;53.212;5.660;2023-12-28T01:42:04;33.75;;;4.80;;
52494;SDS011;38405;53.212;5.660;2023-12-28T01:44:30;39.85;;;5.68;;
52494;SDS011;38405;53.212;5.660;2023-12-28T01:46:56;31.92;;;5.13;;
52494;SDS011;38405;53.212;5.660;2023-12-28T01:49:22;33.47;;;5.32;;
52494;SDS011;38405;53.212;5.660;2023-12-28T01:51:48;43.63;;;6.50;;
52494;SDS011;38405;53.212;5.660;2023-12-28T01:54:15;36.17;;;5.22;;
52494;SDS011;38405;53.212;5.660;2023-12-28T01:56:42;30.83;;;6.20;;
52494;SDS011;38405;53.212;5.660;2023-12-28T01:59:09;41.97;;;6.50;;
52494;SDS011;38405;53.212;5.660;2023-12-28T02:01:34;35.45;;;4.63;;
52494;SDS011;38405;53.212;5.660;2023-12-28T02:04:00;31.25;;;5.55;;
52494;SDS011;38405;53.212;5.660;2023-12-28T02:06:26;42.10;;;6.03;;
52494;SDS011;38405;53.212;5.660;2023-12-28T02:08:52;35.38;;;5.72;;
52494;SDS011;38405;53.212;5.660;2023-12-28T02:11:18;35.72;;;7.10;;
52494;SDS011;38405;53.212;5.660;2023-12-28T02:13:44;30.38;;;5.55;;
52494;SDS011;38405;53.212;5.660;2023-12-28T02:16:21;35.63;;;6.38;;
52494;SDS011;38405;53.212;5.660;2023-12-28T02:18:59;34.47;;;5.65;;
52494;SDS011;38405;53.212;5.660;2023-12-28T02:21:28;33.13;;;5.22;;
52494;SDS011;38405;53.212;5.660;2023-12-28T02:23:56;18.00;;;4.40;;
52494;SDS011;38405;53.212;5.660;2023-12-28T02:26:22;38.67;;;5.50;;
52494;SDS011;38405;53.212;5.660;2023-12-28T02:28:47;37.40;;;4.85;;
52494;SDS011;38405;53.212;5.660;2023-12-28T02:31:28;27.50;;;5.65;;
52494;SDS011;38405;53.212;5.660;2023-12-28T02:34:25;35.58;;;5.07;;
52494;SDS011;38405;53.212;5.660;2023-12-28T02:36:53;34.05;;;5.15;;
52494;SDS011;38405;53.212;5.660;2023-12-28T02:39:21;37.30;;;4.88;;
52494;SDS011;38405;53.212;5.660;2023-12-28T02:41:48;30.60;;;4.68;;
52494;SDS011;38405;53.212;5.660;2023-12-28T02:44:14;27.02;;;4.43;;
52494;SDS011;38405;53.212;5.660;2023-12-28T02:46:40;25.67;;;5.15;;
52494;SDS011;38405;53.212;5.660;2023-12-28T02:49:05;29.90;;;4.50;;
52494;SDS011;38405;53.212;5.660;2023-12-28T02:51:31;33.17;;;4.85;;
52494;SDS011;38405;53.212;5.660;2023-12-28T02:53:57;23.92;;;4.53;;
52494;SDS011;38405;53.212;5.660;2023-12-28T02:56:23;27.92;;;4.28;;
52494;SDS011;38405;53.212;5.660;2023-12-28T02:58:48;28.23;;;5.30;;
52494;SDS011;38405;53.212;5.660;2023-12-28T03:01:14;29.60;;;4.05;;
52494;SDS011;38405;53.212;5.660;2023-12-28T03:03:40;30.42;;;4.57;;
52494;SDS011;38405;53.212;5.660;2023-12-28T03:06:05;24.10;;;4.03;;
52494;SDS011;38405;53.212;5.660;2023-12-28T03:08:31;34.85;;;5.05;;
52494;SDS011;38405;53.212;5.660;2023-12-28T03:10:56;18.38;;;3.53;;
52494;SDS011;38405;53.212;5.660;2023-12-28T03:13:22;34.80;;;5.10;;
52494;SDS011;38405;53.212;5.660;2023-12-28T03:15:48;22.48;;;4.57;;
52494;SDS011;38405;53.212;5.660;2023-12-28T03:18:13;25.00;;;3.78;;
52494;SDS011;38405;53.212;5.660;2023-12-28T03:20:39;28.42;;;4.68;;
52494;SDS011;38405;53.212;5.660;2023-12-28T03:23:05;23.35;;;3.90;;
52494;SDS011;38405;53.212;5.660;2023-12-28T03:25:31;25.85;;;3.50;;
52494;SDS011;38405;53.212;5.660;2023-12-28T03:27:57;22.20;;;3.95;;
52494;SDS011;38405;53.212;5.660;2023-12-28T03:30:22;21.90;;;3.53;;
52494;SDS011;38405;53.212;5.660;2023-12-28T03:32:48;26.73;;;4.38;;
52494;SDS011;38405;53.212;5.660;2023-12-28T03:35:13;33.75;;;5.05;;
52494;SDS011;38405;53.212;5.660;2023-12-28T03:37:39;32.28;;;5.50;;
52494;SDS011;38405;53.212;5.660;2023-12-28T03:40:05;28.55;;;4.07;;
52494;SDS011;38405;53.212;5.660;2023-12-28T03:42:31;25.98;;;4.72;;
52494;SDS011;38405;53.212;5.660;2023-12-28T03:44:56;28.55;;;3.72;;
52494;SDS011;38405;53.212;5.660;2023-12-28T03:47:22;25.33;;;3.88;;
52494;SDS011;38405;53.212;5.660;2023-12-28T03:49:49;20.08;;;3.15;;
52494;SDS011;38405;53.212;5.660;2023-12-28T03:52:14;21.42;;;4.05;;
52494;SDS011;38405;53.212;5.660;2023-12-28T03:54:40;24.67;;;4.95;;
52494;SDS011;38405;53.212;5.660;2023-12-28T03:57:05;19.08;;;4.03;;
52494;SDS011;38405;53.212;5.660;2023-12-28T03:59:31;24.27;;;4.60;;
52494;SDS011;38405;53.212;5.660;2023-12-28T04:01:57;24.33;;;4.80;;
52494;SDS011;38405;53.212;5.660;2023-12-28T04:04:22;34.35;;;4.63;;
52494;SDS011;38405;53.212;5.660;2023-12-28T04:06:48;22.92;;;4.20;;
52494;SDS011;38405;53.212;5.660;2023-12-28T04:09:14;25.98;;;5.07;;
52494;SDS011;38405;53.212;5.660;2023-12-28T04:11:40;26.38;;;4.25;;
52494;SDS011;38405;53.212;5.660;2023-12-28T04:14:05;29.00;;;5.13;;
52494;SDS011;38405;53.212;5.660;2023-12-28T04:16:31;34.00;;;5.25;;
52494;SDS011;38405;53.212;5.660;2023-12-28T04:18:57;27.35;;;4.82;;
52494;SDS011;38405;53.212;5.660;2023-12-28T04:21:22;28.35;;;4.93;;
52494;SDS011;38405;53.212;5.660;2023-12-28T04:23:48;21.77;;;3.75;;
52494;SDS011;38405;53.212;5.660;2023-12-28T04:26:13;25.45;;;4.10;;
52494;SDS011;38405;53.212;5.660;2023-12-28T04:28:39;27.00;;;4.40;;
52494;SDS011;38405;53.212;5.660;2023-12-28T04:31:05;26.05;;;4.10;;
52494;SDS011;38405;53.212;5.660;2023-12-28T04:33:31;31.83;;;4.43;;
52494;SDS011;38405;53.212;5.660;2023-12-28T04:36:00;32.95;;;4.88;;
52494;SDS011;38405;53.212;5.660;2023-12-28T04:38:28;27.17;;;4.72;;
52494;SDS011;38405;53.212;5.660;2023-12-28T04:40:54;40.38;;;5.47;;
52494;SDS011;38405;53.212;5.660;2023-12-28T04:43:20;37.65;;;5.50;;
52494;SDS011;38405;53.212;5.660;2023-12-28T04:45:48;31.58;;;5.45;;
52494;SDS011;38405;53.212;5.660;2023-12-28T04:48:14;29.60;;;4.47;;
52494;SDS011;38405;53.212;5.660;2023-12-28T04:50:40;35.08;;;5.20;;
52494;SDS011;38405;53.212;5.660;2023-12-28T04:53:06;34.85;;;5.75;;
52494;SDS011;38405;53.212;5.660;2023-12-28T04:55:31;27.40;;;4.38;;
52494;SDS011;38405;53.212;5.660;2023-12-28T04:57:57;36.50;;;5.53;;
52494;SDS011;38405;53.212;5.660;2023-12-28T05:00:22;38.80;;;5.57;;
52494;SDS011;38405;53.212;5.660;2023-12-28T05:02:48;33.33;;;5.70;;
52494;SDS011;38405;53.212;5.660;2023-12-28T05:05:14;35.58;;;5.38;;
52494;SDS011;38405;53.212;5.660;2023-12-28T05:07:39;30.15;;;5.63;;
52494;SDS011;38405;53.212;5.660;2023-12-28T05:10:05;37.80;;;6.13;;
52494;SDS011;38405;53.212;5.660;2023-12-28T05:12:31;42.92;;;5.25;;
52494;SDS011;38405;53.212;5.660;2023-12-28T05:14:57;32.10;;;4.80;;
52494;SDS011;38405;53.212;5.660;2023-12-28T05:17:22;38.42;;;5.65;;
52494;SDS011;38405;53.212;5.660;2023-12-28T05:19:48;40.13;;;6.28;;
52494;SDS011;38405;53.212;5.660;2023-12-28T05:22:14;39.60;;;5.40;;
52494;SDS011;38405;53.212;5.660;2023-12-28T05:24:39;33.47;;;6.15;;
52494;SDS011;38405;53.212;5.660;2023-12-28T05:27:05;38.78;;;6.43;;
52494;SDS011;38405;53.212;5.660;2023-12-28T05:29:30;31.38;;;5.50;;
52494;SDS011;38405;53.212;5.660;2023-12-28T05:31:56;37.88;;;5.75;;
52494;SDS011;38405;53.212;5.660;2023-12-28T05:34:22;32.67;;;5.10;;
52494;SDS011;38405;53.212;5.660;2023-12-28T05:36:47;42.47;;;6.55;;
52494;SDS011;38405;53.212;5.660;2023-12-28T05:39:13;37.30;;;6.32;;
52494;SDS011;38405;53.212;5.660;2023-12-28T05:41:39;35.35;;;6.05;;
52494;SDS011;38405;53.212;5.660;2023-12-28T05:44:05;31.00;;;5.13;;
52494;SDS011;38405;53.212;5.660;2023-12-28T05:46:31;39.08;;;6.43;;
52494;SDS011;38405;53.212;5.660;2023-12-28T05:48:57;41.17;;;6.00;;
52494;SDS011;38405;53.212;5.660;2023-12-28T05:51:23;40.65;;;5.97;;
52494;SDS011;38405;53.212;5.660;2023-12-28T05:53:48;32.92;;;5.40;;
52494;SDS011;38405;53.212;5.660;2023-12-28T05:56:14;36.75;;;5.97;;
52494;SDS011;38405;53.212;5.660;2023-12-28T05:58:40;30.33;;;5.35;;
52494;SDS011;38405;53.212;5.660;2023-12-28T06:01:06;35.05;;;5.30;;
52494;SDS011;38405;53.212;5.660;2023-12-28T06:03:32;34.67;;;5.53;;
52494;SDS011;38405;53.212;5.660;2023-12-28T06:05:57;42.90;;;5.63;;
52494;SDS011;38405;53.212;5.660;2023-12-28T06:08:23;44.28;;;6.28;;
52494;SDS011;38405;53.212;5.660;2023-12-28T06:10:49;35.17;;;5.50;;
52494;SDS011;38405;53.212;5.660;2023-12-28T06:13:15;32.70;;;5.50;;
52494;SDS011;38405;53.212;5.660;2023-12-28T06:15:40;44.20;;;7.00;;
52494;SDS011;38405;53.212;5.660;2023-12-28T06:18:06;41.10;;;6.60;;
52494;SDS011;38405;53.212;5.660;2023-12-28T06:20:32;45.80;;;5.75;;
52494;SDS011;38405;53.212;5.660;2023-12-28T06:22:57;38.72;;;6.22;;
52494;SDS011;38405;53.212;5.660;2023-12-28T06:25:23;34.63;;;6.53;;
52494;SDS011;38405;53.212;5.660;2023-12-28T06:27:49;49.97;;;6.85;;
52494;SDS011;38405;53.212;5.660;2023-12-28T06:30:14;37.58;;;6.45;;
52494;SDS011;38405;53.212;5.660;2023-12-28T06:32:40;35.28;;;6.10;;
52494;SDS011;38405;53.212;5.660;2023-12-28T06:35:06;39.28;;;6.07;;
52494;SDS011;38405;53.212;5.660;2023-12-28T06:37:32;35.28;;;5.38;;
52494;SDS011;38405;53.212;5.660;2023-12-28T06:39:58;45.45;;;6.10;;
52494;SDS011;38405;53.212;5.660;2023-12-28T06:42:23;47.53;;;6.13;;
52494;SDS011;38405;53.212;5.660;2023-12-28T06:44:49;37.10;;;5.60;;
52494;SDS011;38405;53.212;5.660;2023-12-28T06:47:14;48.03;;;7.30;;
52494;SDS011;38405;53.212;5.660;2023-12-28T06:49:40;42.60;;;6.25;;
52494;SDS011;38405;53.212;5.660;2023-12-28T06:52:06;41.88;;;6.78;;
52494;SDS011;38405;53.212;5.660;2023-12-28T06:54:31;45.88;;;8.18;;
52494;SDS011;38405;53.212;5.660;2023-12-28T06:56:57;47.25;;;7.35;;
52494;SDS011;38405;53.212;5.660;2023-12-28T06:59:23;35.35;;;6.03;;
52494;SDS011;38405;53.212;5.660;2023-12-28T07:01:48;37.47;;;6.82;;
52494;SDS011;38405;53.212;5.660;2023-12-28T07:04:14;42.15;;;7.07;;
52494;SDS011;38405;53.212;5.660;2023-12-28T07:06:40;48.00;;;7.25;;
52494;SDS011;38405;53.212;5.660;2023-12-28T07:09:06;45.50;;;7.68;;
52494;SDS011;38405;53.212;5.660;2023-12-28T07:11:32;45.90;;;6.45;;
52494;SDS011;38405;53.212;5.660;2023-12-28T07:13:57;49.00;;;8.30;;
52494;SDS011;38405;53.212;5.660;2023-12-28T07:16:23;53.15;;;8.05;;
52494;SDS011;38405;53.212;5.660;2023-12-28T07:18:49;46.08;;;7.55;;
52494;SDS011;38405;53.212;5.660;2023-12-28T07:21:14;44.38;;;7.30;;
52494;SDS011;38405;53.212;5.660;2023-12-28T07:23:40;44.90;;;7.88;;
52494;SDS011;38405;53.212;5.660;2023-12-28T07:26:05;53.50;;;8.02;;
52494;SDS011;38405;53.212;5.660;2023-12-28T07:28:31;67.07;;;8.70;;
52494;SDS011;38405;53.212;5.660;2023-12-28T07:30:57;55.28;;;8.35;;
52494;SDS011;38405;53.212;5.660;2023-12-28T07:33:22;49.25;;;7.53;;
52494;SDS011;38405;53.212;5.660;2023-12-28T07:35:48;44.70;;;7.90;;
52494;SDS011;38405;53.212;5.660;2023-12-28T07:38:13;53.45;;;8.35;;
52494;SDS011;38405;53.212;5.660;2023-12-28T07:40:40;60.92;;;8.77;;
52494;SDS011;38405;53.212;5.660;2023-12-28T07:43:05;57.90;;;8.40;;
52494;SDS011;38405;53.212;5.660;2023-12-28T07:45:31;47.40;;;7.80;;
52494;SDS011;38405;53.212;5.660;2023-12-28T07:48:01;70.03;;;10.40;;
52494;SDS011;38405;53.212;5.660;2023-12-28T07:50:27;67.60;;;9.60;;
52494;SDS011;38405;53.212;5.660;2023-12-28T07:52:52;61.95;;;10.23;;
52494;SDS011;38405;53.212;5.660;2023-12-28T07:55:18;61.60;;;8.95;;
52494;SDS011;38405;53.212;5.660;2023-12-28T07:57:44;63.83;;;9.88;;
52494;SDS011;38405;53.212;5.660;2023-12-28T08:00:10;65.00;;;9.75;;
52494;SDS011;38405;53.212;5.660;2023-12-28T08:02:36;57.00;;;9.52;;
52494;SDS011;38405;53.212;5.660;2023-12-28T08:05:02;58.95;;;7.88;;
52494;SDS011;38405;53.212;5.660;2023-12-28T08:07:28;43.15;;;8.77;;
52494;SDS011;38405;53.212;5.660;2023-12-28T08:09:54;57.13;;;9.32;;
52494;SDS011;38405;53.212;5.660;2023-12-28T08:12:20;61.22;;;9.80;;
52494;SDS011;38405;53.212;5.660;2023-12-28T08:14:49;53.85;;;9.32;;
52494;SDS011;38405;53.212;5.660;2023-12-28T08:17:15;57.42;;;9.23;;
52494;SDS011;38405;53.212;5.660;2023-12-28T08:19:41;58.63;;;9.02;;
52494;SDS011;38405;53.212;5.660;2023-12-28T08:22:06;70.40;;;10.85;;
52494;SDS011;38405;53.212;5.660;2023-12-28T08:24:32;57.17;;;8.68;;
52494;SDS011;38405;53.212;5.660;2023-12-28T08:26:58;60.78;;;9.55;;
52494;SDS011;38405;53.212;5.660;2023-12-28T08:29:25;52.00;;;7.90;;
52494;SDS011;38405;53.212;5.660;2023-12-28T08:31:51;49.30;;;8.98;;
52494;SDS011;38405;53.212;5.660;2023-12-28T08:34:17;65.72;;;10.38;;
52494;SDS011;38405;53.212;5.660;2023-12-28T08:36:42;70.65;;;11.13;;
52494;SDS011;38405;53.212;5.660;2023-12-28T08:39:08;66.68;;;10.10;;
52494;SDS011;38405;53.212;5.660;2023-12-28T08:41:34;69.65;;;10.18;;
52494;SDS011;38405;53.212;5.660;2023-12-28T08:43:59;57.65;;;9.35;;
52494;SDS011;38405;53.212;5.660;2023-12-28T08:46:25;61.00;;;9.30;;
52494;SDS011;38405;53.212;5.660;2023-12-28T08:48:51;74.82;;;11.30;;
52494;SDS011;38405;53.212;5.660;2023-12-28T08:51:16;65.32;;;8.07;;
52494;SDS011;38405;53.212;5.660;2023-12-28T08:53:42;62.67;;;9.90;;
52494;SDS011;38405;53.212;5.660;2023-12-28T08:56:20;57.75;;;9.07;;
52494;SDS011;38405;53.212;5.660;2023-12-28T08:58:46;58.72;;;9.52;;
52494;SDS011;38405;53.212;5.660;2023-12-28T09:01:22;60.80;;;8.77;;
52494;SDS011;38405;53.212;5.660;2023-12-28T09:03:52;60.47;;;9.90;;
52494;SDS011;38405;53.212;5.660;2023-12-28T09:06:18;47.03;;;8.63;;
52494;SDS011;38405;53.212;5.660;2023-12-28T09:08:47;63.42;;;10.02;;
52494;SDS011;38405;53.212;5.660;2023-12-28T09:11:16;61.78;;;9.02;;
52494;SDS011;38405;53.212;5.660;2023-12-28T09:13:43;67.18;;;10.05;;
52494;SDS011;38405;53.212;5.660;2023-12-28T09:16:12;68.43;;;9.57;;
52494;SDS011;38405;53.212;5.660;2023-12-28T09:18:39;55.78;;;8.02;;
52494;SDS011;38405;53.212;5.660;2023-12-28T09:21:06;63.45;;;8.40;;
52494;SDS011;38405;53.212;5.660;2023-12-28T09:23:33;60.10;;;8.63;;
52494;SDS011;38405;53.212;5.660;2023-12-28T09:26:00;61.10;;;9.52;;
52494;SDS011;38405;53.212;5.660;2023-12-28T09:28:28;53.70;;;9.25;;
52494;SDS011;38405;53.212;5.660;2023-12-28T09:30:54;51.92;;;9.48;;
52494;SDS011;38405;53.212;5.660;2023-12-28T09:33:20;56.03;;;8.82;;
52494;SDS011;38405;53.212;5.660;2023-12-28T09:35:46;54.53;;;8.25;;
52494;SDS011;38405;53.212;5.660;2023-12-28T09:38:12;59.30;;;8.80;;
52494;SDS011;38405;53.212;5.660;2023-12-28T09:40:41;44.65;;;7.60;;
52494;SDS011;38405;53.212;5.660;2023-12-28T09:45:52;46.78;;;7.63;;
52494;SDS011;38405;53.212;5.660;2023-12-28T09:48:20;53.13;;;7.95;;
52494;SDS011;38405;53.212;5.660;2023-12-28T09:50:50;51.40;;;7.60;;
52494;SDS011;38405;53.212;5.660;2023-12-28T09:53:19;53.35;;;8.95;;
52494;SDS011;38405;53.212;5.660;2023-12-28T09:55:47;47.58;;;6.65;;
52494;SDS011;38405;53.212;5.660;2023-12-28T09:58:14;49.22;;;7.97;;
52494;SDS011;38405;53.212;5.660;2023-12-28T10:00:46;45.47;;;7.22;;
52494;SDS011;38405;53.212;5.660;2023-12-28T10:03:13;49.30;;;7.88;;
52494;SDS011;38405;53.212;5.660;2023-12-28T10:05:42;50.10;;;8.35;;
52494;SDS011;38405;53.212;5.660;2023-12-28T10:08:10;44.38;;;6.97;;
52494;SDS011;38405;53.212;5.660;2023-12-28T10:10:38;57.72;;;7.55;;
52494;SDS011;38405;53.212;5.660;2023-12-28T10:13:05;55.95;;;8.40;;
52494;SDS011;38405;53.212;5.660;2023-12-28T10:15:32;48.25;;;8.43;;
52494;SDS011;38405;53.212;5.660;2023-12-28T10:17:58;55.13;;;7.88;;
52494;SDS011;38405;53.212;5.660;2023-12-28T10:20:27;39.83;;;6.90;;
52494;SDS011;38405;53.212;5.660;2023-12-28T10:22:53;52.63;;;7.90;;
52494;SDS011;38405;53.212;5.660;2023-12-28T10:25:19;49.90;;;8.93;;
52494;SDS011;38405;53.212;5.660;2023-12-28T10:27:45;48.97;;;7.45;;
52494;SDS011;38405;53.212;5.660;2023-12-28T10:30:10;46.28;;;7.25;;
52494;SDS011;38405;53.212;5.660;2023-12-28T10:32:39;47.05;;;8.25;;
52494;SDS011;38405;53.212;5.660;2023-12-28T10:35:05;46.85;;;6.80;;
52494;SDS011;38405;53.212;5.660;2023-12-28T10:37:31;50.00;;;6.85;;
52494;SDS011;38405;53.212;5.660;2023-12-28T10:39:58;41.17;;;6.18;;
52494;SDS011;38405;53.212;5.660;2023-12-28T10:42:29;40.72;;;6.80;;
52494;SDS011;38405;53.212;5.660;2023-12-28T10:45:03;54.17;;;8.55;;
52494;SDS011;38405;53.212;5.660;2023-12-28T10:47:37;58.25;;;8.63;;
52494;SDS011;38405;53.212;5.660;2023-12-28T10:50:04;46.10;;;7.65;;
52494;SDS011;38405;53.212;5.660;2023-12-28T10:52:30;45.47;;;7.20;;
52494;SDS011;38405;53.212;5.660;2023-12-28T10:57:59;53.70;;;8.30;;
52494;SDS011;38405;53.212;5.660;2023-12-28T11:01:02;56.60;;;8.27;;
52494;SDS011;38405;53.212;5.660;2023-12-28T11:03:34;41.97;;;7.20;;
52494;SDS011;38405;53.212;5.660;2023-12-28T11:06:04;48.53;;;7.60;;
52494;SDS011;38405;53.212;5.660;2023-12-28T11:08:30;39.13;;;7.38;;
52494;SDS011;38405;53.212;5.660;2023-12-28T11:10:57;55.10;;;7.70;;
52494;SDS011;38405;53.212;5.660;2023-12-28T11:13:27;40.63;;;7.75;;
52494;SDS011;38405;53.212;5.660;2023-12-28T11:15:55;40.72;;;6.30;;
52494;SDS011;38405;53.212;5.660;2023-12-28T11:18:23;56.13;;;7.90;;
52494;SDS011;38405;53.212;5.660;2023-12-28T11:20:49;44.25;;;7.40;;
52494;SDS011;38405;53.212;5.660;2023-12-28T11:23:16;37.13;;;6.72;;
52494;SDS011;38405;53.212;5.660;2023-12-28T11:25:42;50.63;;;8.05;;
52494;SDS011;38405;53.212;5.660;2023-12-28T11:28:11;47.58;;;8.10;;
52494;SDS011;38405;53.212;5.660;2023-12-28T11:30:37;38.47;;;7.10;;
52494;SDS011;38405;53.212;5.660;2023-12-28T11:33:06;40.42;;;6.90;;
52494;SDS011;38405;53.212;5.660;2023-12-28T11:35:35;39.05;;;6.93;;
52494;SDS011;38405;53.212;5.660;2023-12-28T11:38:08;44.65;;;7.47;;
52494;SDS011;38405;53.212;5.660;2023-12-28T11:40:39;56.00;;;7.65;;
52494;SDS011;38405;53.212;5.660;2023-12-28T11:43:19;50.80;;;8.00;;
52494;SDS011;38405;53.212;5.660;2023-12-28T11:45:49;58.22;;;8.48;;
52494;SDS011;38405;53.212;5.660;2023-12-28T11:48:26;44.83;;;8.13;;
52494;SDS011;38405;53.212;5.660;2023-12-28T11:50:57;52.55;;;7.40;;
52494;SDS011;38405;53.212;5.660;2023-12-28T11:53:23;45.45;;;8.52;;
52494;SDS011;38405;53.212;5.660;2023-12-28T11:55:50;48.20;;;7.72;;
52494;SDS011;38405;53.212;5.660;2023-12-28T11:58:17;52.88;;;8.48;;
52494;SDS011;38405;53.212;5.660;2023-12-28T12:00:45;54.63;;;8.20;;
52494;SDS011;38405;53.212;5.660;2023-12-28T12:03:12;49.30;;;8.00;;
52494;SDS011;38405;53.212;5.660;2023-12-28T12:05:39;47.58;;;7.22;;
52494;SDS011;38405;53.212;5.660;2023-12-28T12:08:05;45.28;;;7.13;;
52494;SDS011;38405;53.212;5.660;2023-12-28T12:10:33;57.13;;;8.73;;
52494;SDS011;38405;53.212;5.660;2023-12-28T12:12:59;46.63;;;8.38;;
52494;SDS011;38405;53.212;5.660;2023-12-28T12:15:25;46.05;;;8.48;;
52494;SDS011;38405;53.212;5.660;2023-12-28T12:17:51;59.28;;;9.90;;
52494;SDS011;38405;53.212;5.660;2023-12-28T12:20:16;64.25;;;9.13;;
52494;SDS011;38405;53.212;5.660;2023-12-28T12:22:42;50.58;;;8.27;;
52494;SDS011;38405;53.212;5.660;2023-12-28T12:25:08;45.75;;;7.90;;
52494;SDS011;38405;53.212;5.660;2023-12-28T12:27:35;62.60;;;9.13;;
52494;SDS011;38405;53.212;5.660;2023-12-28T12:30:01;56.47;;;9.23;;
52494;SDS011;38405;53.212;5.660;2023-12-28T12:32:28;42.15;;;7.35;;
52494;SDS011;38405;53.212;5.660;2023-12-28T12:34:54;40.90;;;6.63;;
52494;SDS011;38405;53.212;5.660;2023-12-28T12:37:20;48.20;;;7.13;;
52494;SDS011;38405;53.212;5.660;2023-12-28T12:39:46;52.65;;;8.52;;
52494;SDS011;38405;53.212;5.660;2023-12-28T12:42:15;51.90;;;6.93;;
52494;SDS011;38405;53.212;5.660;2023-12-28T12:44:42;35.65;;;6.05;;
52494;SDS011;38405;53.212;5.660;2023-12-28T12:47:07;36.53;;;6.60;;
52494;SDS011;38405;53.212;5.660;2023-12-28T12:49:33;48.00;;;7.97;;
52494;SDS011;38405;53.212;5.660;2023-12-28T12:51:58;42.50;;;7.65;;
52494;SDS011;38405;53.212;5.660;2023-12-28T12:54:26;48.58;;;7.57;;
52494;SDS011;38405;53.212;5.660;2023-12-28T12:56:52;50.20;;;7.50;;
52494;SDS011;38405;53.212;5.660;2023-12-28T12:59:18;42.67;;;8.18;;
52494;SDS011;38405;53.212;5.660;2023-12-28T13:01:44;40.78;;;6.68;;
52494;SDS011;38405;53.212;5.660;2023-12-28T13:04:10;35.47;;;5.78;;
52494;SDS011;38405;53.212;5.660;2023-12-28T13:06:36;39.22;;;6.13;;
52494;SDS011;38405;53.212;5.660;2023-12-28T13:09:03;39.97;;;7.20;;
52494;SDS011;38405;53.212;5.660;2023-12-28T13:11:31;39.70;;;5.90;;
52494;SDS011;38405;53.212;5.660;2023-12-28T13:13:58;44.13;;;7.68;;
52494;SDS011;38405;53.212;5.660;2023-12-28T13:16:24;37.70;;;7.78;;
52494;SDS011;38405;53.212;5.660;2023-12-28T13:18:49;52.53;;;7.60;;
52494;SDS011;38405;53.212;5.660;2023-12-28T13:21:15;49.60;;;7.78;;
52494;SDS011;38405;53.212;5.660;2023-12-28T13:23:40;51.33;;;8.88;;
52494;SDS011;38405;53.212;5.660;2023-12-28T13:26:06;56.95;;;8.10;;
52494;SDS011;38405;53.212;5.660;2023-12-28T13:28:32;53.92;;;7.82;;
52494;SDS011;38405;53.212;5.660;2023-12-28T13:30:58;54.95;;;7.68;;
52494;SDS011;38405;53.212;5.660;2023-12-28T13:33:23;45.38;;;7.40;;
52494;SDS011;38405;53.212;5.660;2023-12-28T13:35:49;54.22;;;8.20;;
52494;SDS011;38405;53.212;5.660;2023-12-28T13:38:15;57.33;;;8.57;;
52494;SDS011;38405;53.212;5.660;2023-12-28T13:40:41;49.15;;;7.70;;
52494;SDS011;38405;53.212;5.660;2023-12-28T13:43:07;53.55;;;8.27;;
52494;SDS011;38405;53.212;5.660;2023-12-28T13:45:33;39.88;;;6.65;;
52494;SDS011;38405;53.212;5.660;2023-12-28T13:47:58;49.67;;;7.30;;
52494;SDS011;38405;53.212;5.660;2023-12-28T13:50:24;45.17;;;7.40;;
52494;SDS011;38405;53.212;5.660;2023-12-28T13:52:50;52.80;;;7.47;;
52494;SDS011;38405;53.212;5.660;2023-12-28T13:55:15;51.33;;;8.15;;
52494;SDS011;38405;53.212;5.660;2023-12-28T13:57:41;56.85;;;6.68;;
52494;SDS011;38405;53.212;5.660;2023-12-28T14:00:07;38.40;;;5.97;;
52494;SDS011;38405;53.212;5.660;2023-12-28T14:02:34;47.00;;;7.53;;
52494;SDS011;38405;53.212;5.660;2023-12-28T14:04:59;38.10;;;6.90;;
52494;SDS011;38405;53.212;5.660;2023-12-28T14:07:25;43.63;;;6.72;;
52494;SDS011;38405;53.212;5.660;2023-12-28T14:09:51;45.13;;;6.65;;
52494;SDS011;38405;53.212;5.660;2023-12-28T14:12:17;39.58;;;6.35;;
52494;SDS011;38405;53.212;5.660;2023-12-28T14:14:43;41.25;;;6.78;;
52494;SDS011;38405;53.212;5.660;2023-12-28T14:17:08;34.92;;;6.57;;
52494;SDS011;38405;53.212;5.660;2023-12-28T14:19:34;38.25;;;6.30;;
52494;SDS011;38405;53.212;5.660;2023-12-28T14:22:00;41.70;;;6.57;;
52494;SDS011;38405;53.212;5.660;2023-12-28T14:24:25;41.80;;;6.35;;
52494;SDS011;38405;53.212;5.660;2023-12-28T14:26:55;30.13;;;5.35;;
52494;SDS011;38405;53.212;5.660;2023-12-28T14:29:21;35.78;;;6.20;;
52494;SDS011;38405;53.212;5.660;2023-12-28T14:31:47;39.70;;;5.75;;
52494;SDS011;38405;53.212;5.660;2023-12-28T14:34:16;37.83;;;6.25;;